Terminal Aerodrome Forecast
Issued by NWS Medford, OR

Home | Current Version | Previous Version | Text Only | Print | Product List | Glossary On
Versions: 1 2 3 4 5 6 7 8 9 10 11 12
000
FTUS46 KMFR 182330
TAFMFR
TAF
KMFR 182330Z 1900/1924 29005KT P6SM SCT250
     FM190300 17005KT P6SM BKN250
     FM191900 20012G20KT P6SM VCSH SCT080 BKN120
     FM192300 24010KT 6SM -RA BR SCT030 OVC040=

USA.gov is the U.S. government's official web portal to all federal, state and local government web resources and services.